createdAt,value
2022-10-22T00:03:56.315Z,99924.47
2022-10-22T00:09:12.652Z,99923.28
2022-10-22T00:11:42.909Z,99924.63
2022-10-22T00:14:21.062Z,99927.97
2022-10-22T00:16:50.652Z,99920.28
2022-10-22T00:22:10.302Z,99913.81
2022-10-22T00:24:40.343Z,99903.28
2022-10-22T00:27:09.393Z,99899.59
2022-10-22T00:32:25.854Z,99899.94
2022-10-22T00:34:55.487Z,99906.59
2022-10-22T00:40:10.441Z,99895.94
2022-10-22T00:48:17.559Z,99915.28
2022-10-22T00:53:47.911Z,99910.63
2022-10-22T00:56:18.289Z,99905.28
2022-10-22T00:58:48.990Z,99895.44
2022-10-22T01:01:24.869Z,99906.94
2022-10-22T01:06:39.020Z,99906.94
2022-10-22T01:12:09.772Z,99910.94
2022-10-22T01:18:06.947Z,99902.59
2022-10-22T01:20:47.733Z,99909.09
2022-10-22T01:23:17.622Z,99908.09
2022-10-22T01:26:18.837Z,99898.59
2022-10-22T01:28:59.012Z,99912.13
2022-10-22T01:34:20.100Z,99898.75
2022-10-22T01:36:54.774Z,99916.94
2022-10-22T01:39:28.418Z,99910.09
2022-10-22T01:44:46.682Z,99916.44
2022-10-22T01:47:16.049Z,99920.44
2022-10-22T01:53:21.914Z,99917.44
2022-10-22T01:56:15.197Z,99915.97
2022-10-22T01:58:42.759Z,99926.31
2022-10-22T02:01:35.938Z,99921.63
2022-10-22T02:04:17.101Z,99921.28
2022-10-22T02:06:48.063Z,99904.63
2022-10-22T02:15:29.884Z,99920.44
2022-10-22T02:20:44.152Z,99929.97
2022-10-22T02:23:11.926Z,99924.97
2022-10-22T02:25:44.547Z,99929.47
2022-10-22T02:28:23.507Z,99934.78
2022-10-22T02:39:19.258Z,99932.31
2022-10-22T02:41:46.620Z,99932.31
2022-10-22T02:44:13.785Z,99935.63
2022-10-22T02:46:43.246Z,99922.94
2022-10-22T02:49:10.245Z,99930.28
2022-10-22T02:51:37.235Z,99932.63
2022-10-22T02:54:09.510Z,99933.78
2022-10-22T02:59:21.183Z,99922.94
2022-10-22T03:01:48.277Z,99935.78
2022-10-22T03:07:02.560Z,99932.31
2022-10-22T03:12:16.780Z,99937.13
2022-10-22T03:14:43.886Z,99937.13
2022-10-22T03:17:12.943Z,99932.13
2022-10-22T03:22:29.845Z,99921.44
2022-10-22T03:25:03.121Z,99939.66
2022-10-22T03:33:03.449Z,99935.47
2022-10-22T03:38:48.604Z,99939.16
2022-10-22T03:44:02.116Z,99924.97
2022-10-22T03:49:17.779Z,99930.81
2022-10-22T03:51:44.686Z,99936.97
2022-10-22T03:54:17.187Z,99936.31
2022-10-22T03:56:44.162Z,99935.00
2022-10-22T03:59:15.121Z,99929.66
2022-10-22T04:01:42.236Z,99938.31
2022-10-22T04:04:14.192Z,99945.00
2022-10-22T04:12:18.463Z,99945.00
2022-10-22T04:14:45.476Z,99943.50
2022-10-22T04:22:43.400Z,99943.97
2022-10-22T04:27:56.897Z,99939.00
2022-10-22T04:30:23.884Z,99935.31
2022-10-22T04:32:50.834Z,99943.97
2022-10-22T04:35:22.601Z,99936.66
2022-10-22T04:37:56.992Z,99946.66
2022-10-22T04:40:24.129Z,99948.31
2022-10-22T04:42:53.210Z,99933.00
2022-10-22T04:45:22.832Z,99941.66
2022-10-22T04:47:52.015Z,99940.66
2022-10-22T04:53:10.534Z,99938.81
2022-10-22T04:55:37.559Z,99949.66
2022-10-22T05:06:21.059Z,99957.31
2022-10-22T05:11:41.689Z,99965.66
2022-10-22T05:14:10.637Z,99957.31
2022-10-22T05:16:38.711Z,99962.69
2022-10-22T05:19:09.059Z,99964.34
2022-10-22T05:21:40.991Z,99963.84
2022-10-22T05:24:10.816Z,99955.19
2022-10-22T05:26:37.758Z,99961.69
2022-10-22T05:29:04.799Z,99954.53
2022-10-22T05:31:31.817Z,99967.22
2022-10-22T05:33:58.856Z,99966.03
2022-10-22T05:36:28.436Z,99971.06
2022-10-22T05:38:55.479Z,99967.72
2022-10-22T05:41:24.411Z,99972.25
2022-10-22T05:43:51.730Z,99968.38
2022-10-22T05:46:22.848Z,99967.91
2022-10-22T05:48:55.336Z,99974.75
2022-10-22T05:51:25.690Z,99982.75
2022-10-22T05:53:57.822Z,99980.06
2022-10-22T05:56:26.639Z,99980.06
2022-10-22T05:58:53.675Z,99978.41
2022-10-22T06:01:30.364Z,99979.09
2022-10-22T06:04:01.951Z,99979.75
2022-10-22T06:06:39.302Z,99976.41
2022-10-22T06:09:22.449Z,99977.41
2022-10-22T06:11:53.289Z,99980.56
2022-10-22T06:14:21.174Z,99973.38
2022-10-22T06:16:48.958Z,99977.72
2022-10-22T06:19:18.807Z,99976.88
2022-10-22T06:21:49.070Z,99984.91
2022-10-22T06:24:21.246Z,99979.75
2022-10-22T06:26:54.028Z,99983.41
2022-10-22T06:29:23.378Z,99983.06
2022-10-22T06:31:51.982Z,99986.41
2022-10-22T06:34:19.177Z,99986.22
2022-10-22T06:36:49.858Z,99979.41
2022-10-22T06:39:19.571Z,99983.75
2022-10-22T06:41:49.549Z,99991.09
2022-10-22T06:44:19.366Z,99989.91
2022-10-22T06:46:54.713Z,99999.25
2022-10-22T06:49:22.197Z,99989.56
2022-10-22T06:51:53.333Z,99991.06
2022-10-22T06:54:23.386Z,99994.88
2022-10-22T06:56:52.709Z,99996.41
2022-10-22T06:59:20.726Z,99993.91
2022-10-22T07:01:47.813Z,99990.03
2022-10-22T07:04:14.939Z,100002.06
2022-10-22T07:06:42.033Z,99992.66
2022-10-22T07:09:09.260Z,99996.91
2022-10-22T07:11:42.458Z,100001.19
2022-10-22T07:14:20.063Z,100004.47
2022-10-22T07:16:47.067Z,100007.81
2022-10-22T07:19:17.259Z,100004.47
2022-10-22T07:21:44.456Z,100002.22
2022-10-22T07:24:13.796Z,100009.25
2022-10-22T07:26:45.443Z,100009.59
2022-10-22T07:29:15.577Z,100006.31
2022-10-22T07:31:45.947Z,100008.94
2022-10-22T07:34:13.150Z,100017.75
2022-10-22T07:36:40.180Z,100010.72
2022-10-22T07:39:09.439Z,100007.22
2022-10-22T07:41:36.504Z,100003.13
2022-10-22T07:44:05.894Z,100002.25
2022-10-22T07:46:32.998Z,100006.06
2022-10-22T07:48:59.978Z,100005.41
2022-10-22T07:51:29.455Z,100000.47
2022-10-22T07:54:00.054Z,100009.69
2022-10-22T07:56:27.019Z,100012.69
2022-10-22T07:58:54.070Z,100015.38
2022-10-22T08:01:23.554Z,100009.81
2022-10-22T08:03:59.817Z,100008.66
2022-10-22T08:06:26.753Z,100015.72
2022-10-22T08:08:53.722Z,100014.88
2022-10-22T08:11:22.925Z,100006.81
2022-10-22T08:13:49.930Z,100001.78
2022-10-22T08:16:17.093Z,100005.38
2022-10-22T08:18:44.406Z,100006.88
2022-10-22T08:21:15.705Z,100007.16
2022-10-22T08:23:45.030Z,100003.50
2022-10-22T08:26:12.262Z,100005.06
2022-10-22T08:28:39.474Z,100001.34
2022-10-22T08:31:07.959Z,99998.50
2022-10-22T08:33:38.924Z,100005.72
2022-10-22T08:36:11.688Z,100005.59
2022-10-22T08:38:40.989Z,100006.66
2022-10-22T08:41:24.598Z,100009.91
2022-10-22T08:44:13.076Z,100008.31
2022-10-22T08:46:43.049Z,100014.53
2022-10-22T08:49:20.660Z,100004.34
2022-10-22T08:51:53.460Z,100013.03
2022-10-22T08:54:42.207Z,100007.66
2022-10-22T08:57:09.134Z,100010.16
2022-10-22T09:00:32.090Z,100006.03
2022-10-22T09:03:32.986Z,100006.66
2022-10-22T09:06:11.834Z,100012.00
2022-10-22T09:08:42.176Z,100004.13
2022-10-22T09:11:27.072Z,100007.81
2022-10-22T09:13:57.378Z,100003.94
2022-10-22T09:16:36.608Z,100014.31
2022-10-22T09:19:03.615Z,100008.28
2022-10-22T09:22:00.444Z,100009.47
2022-10-22T09:24:42.191Z,100005.34
2022-10-22T09:27:14.313Z,100002.13
2022-10-22T09:29:41.749Z,100003.94
2022-10-22T09:32:10.656Z,99996.97
2022-10-22T09:34:40.854Z,99988.97
2022-10-22T09:37:10.117Z,99997.66
2022-10-22T09:39:45.219Z,100000.69
2022-10-22T09:42:19.909Z,100006.53
2022-10-22T09:45:50.768Z,99996.66
2022-10-22T09:48:26.651Z,99989.03
2022-10-22T09:51:25.661Z,99994.38
2022-10-22T09:53:59.062Z,100003.72
2022-10-22T09:56:35.999Z,99996.00
2022-10-22T09:59:14.244Z,100001.75
2022-10-22T10:01:41.624Z,99989.88
2022-10-22T10:04:17.608Z,99985.69
2022-10-22T10:06:45.107Z,99982.88
2022-10-22T10:10:05.426Z,99987.34
2022-10-22T10:12:48.231Z,99985.19
2022-10-22T10:15:30.835Z,99984.31
2022-10-22T10:18:24.108Z,99972.44
2022-10-22T10:21:29.601Z,99986.09
2022-10-22T10:24:08.396Z,99979.75
2022-10-22T10:27:02.958Z,99967.19
2022-10-22T10:33:06.432Z,99973.88
2022-10-22T10:36:14.178Z,99967.81
2022-10-22T10:39:18.878Z,99972.38
2022-10-22T10:42:22.467Z,99976.69
2022-10-22T10:44:58.071Z,99971.66
2022-10-22T10:48:07.087Z,99970.84
2022-10-22T10:51:12.523Z,99965.06
2022-10-22T10:54:09.917Z,99960.50
2022-10-22T10:57:51.228Z,99965.84
2022-10-22T11:00:42.116Z,99970.00
2022-10-22T11:03:37.166Z,99964.88
2022-10-22T11:06:47.892Z,99949.19
2022-10-22T11:09:45.320Z,99944.53
2022-10-22T11:12:29.282Z,99937.53
2022-10-22T11:15:32.494Z,99956.53
2022-10-22T11:18:12.880Z,99945.81
2022-10-22T11:21:09.337Z,99950.00
2022-10-22T11:23:43.545Z,99950.34
2022-10-22T11:26:19.020Z,99935.47
2022-10-22T11:28:53.720Z,99950.13
2022-10-22T11:31:23.908Z,99943.81
2022-10-22T11:34:28.588Z,99941.59
2022-10-22T11:36:58.743Z,99942.75
2022-10-22T11:40:05.977Z,99941.47
2022-10-22T11:42:46.833Z,99931.59
2022-10-22T11:45:13.657Z,99931.06
2022-10-22T11:47:59.475Z,99927.78
2022-10-22T11:50:41.751Z,99931.50
2022-10-22T11:53:14.705Z,99923.34
2022-10-22T11:55:56.274Z,99928.00
2022-10-22T11:58:52.142Z,99920.81
2022-10-22T12:01:24.811Z,99924.81
2022-10-22T12:03:57.909Z,99926.66
2022-10-22T12:06:47.806Z,99922.34
2022-10-22T12:09:16.210Z,99921.47
2022-10-22T12:11:52.179Z,99905.13
2022-10-22T12:14:32.374Z,99907.47
2022-10-22T12:17:13.595Z,99920.31
2022-10-22T12:20:04.721Z,99902.94
2022-10-22T12:22:37.926Z,99897.41
2022-10-22T12:25:22.352Z,99916.31
2022-10-22T12:27:57.382Z,99910.97
2022-10-22T12:30:27.246Z,99902.13
2022-10-22T12:33:01.089Z,99898.66
2022-10-22T12:35:36.064Z,99904.31
2022-10-22T12:38:19.403Z,99889.31
2022-10-22T12:40:50.779Z,99889.47
2022-10-22T12:43:24.528Z,99896.50
2022-10-22T12:46:00.282Z,99891.16
2022-10-22T12:48:30.992Z,99884.53
2022-10-22T12:51:08.259Z,99894.34
2022-10-22T12:53:44.065Z,99880.53
2022-10-22T12:56:17.933Z,99879.03
2022-10-22T12:59:00.239Z,99895.22
2022-10-22T13:01:29.290Z,99885.69
2022-10-22T13:04:29.325Z,99893.03
2022-10-22T13:07:18.355Z,99887.19
2022-10-22T13:10:02.419Z,99873.50
2022-10-22T13:12:36.870Z,99895.84
2022-10-22T13:15:37.848Z,99898.84
2022-10-22T13:18:16.864Z,99890.50
2022-10-22T13:20:58.987Z,99892.69
2022-10-22T13:23:30.297Z,99890.84
2022-10-22T13:26:04.205Z,99880.16
2022-10-22T13:28:32.827Z,99889.81
2022-10-22T13:31:09.815Z,99890.13
2022-10-22T13:33:43.856Z,99877.09
2022-10-22T13:36:16.476Z,99871.28
2022-10-22T13:38:48.333Z,99875.59
2022-10-22T13:44:07.069Z,99889.34
2022-10-22T13:46:40.593Z,99880.06
2022-10-22T13:49:23.578Z,99883.72
2022-10-22T13:51:56.191Z,99881.56
2022-10-22T13:54:27.035Z,99885.78
2022-10-22T13:56:56.340Z,99881.63
2022-10-22T13:59:26.019Z,99872.59
2022-10-22T14:01:54.069Z,99870.94
2022-10-22T14:04:22.292Z,99873.28
2022-10-22T14:06:49.430Z,99874.63
2022-10-22T14:09:16.960Z,99873.59
2022-10-22T14:11:46.374Z,99865.59
2022-10-22T14:14:19.652Z,99865.94
2022-10-22T14:16:55.359Z,99859.59
2022-10-22T14:23:55.288Z,99870.59
2022-10-22T14:26:31.537Z,99872.59
2022-10-22T14:29:15.182Z,99865.41
2022-10-22T14:31:44.569Z,99873.94
2022-10-22T14:34:16.963Z,99875.94
2022-10-22T14:36:47.291Z,99877.28
2022-10-22T14:39:18.506Z,99875.94
2022-10-22T14:41:48.501Z,99868.94
2022-10-22T14:44:15.622Z,99866.94
2022-10-22T14:46:44.557Z,99873.09
2022-10-22T14:49:16.444Z,99876.44
2022-10-22T14:51:46.166Z,99866.75
2022-10-22T14:54:35.424Z,99870.75
2022-10-22T14:57:20.621Z,99862.94
2022-10-22T14:59:54.922Z,99862.25
2022-10-22T15:02:22.101Z,99867.59
2022-10-22T15:04:49.561Z,99864.56
2022-10-22T15:07:18.944Z,99870.75
2022-10-22T15:09:46.620Z,99858.91
2022-10-22T15:12:15.916Z,99863.56
2022-10-22T15:14:45.279Z,99877.38
2022-10-22T15:17:14.972Z,99867.91
2022-10-22T15:19:43.961Z,99870.22
2022-10-22T15:22:23.680Z,99878.59
2022-10-22T15:24:52.436Z,99863.59
2022-10-22T15:30:26.955Z,99877.25
2022-10-22T15:33:03.299Z,99866.91
2022-10-22T15:35:30.660Z,99872.25
2022-10-22T15:37:57.793Z,99871.59
2022-10-22T15:40:24.656Z,99872.44
2022-10-22T15:42:55.167Z,99873.59
2022-10-22T15:45:29.999Z,99875.63
2022-10-22T15:47:59.448Z,99867.44
2022-10-22T15:50:32.215Z,99878.91
2022-10-22T15:53:01.358Z,99861.56
2022-10-22T15:55:30.966Z,99871.91
2022-10-22T15:58:00.594Z,99881.59
2022-10-22T16:00:30.539Z,99871.28
2022-10-22T16:02:57.576Z,99881.75
2022-10-22T16:05:24.677Z,99879.59
2022-10-22T16:07:55.801Z,99881.28
2022-10-22T16:10:29.113Z,99880.09
2022-10-22T16:12:58.990Z,99879.09
2022-10-22T16:15:25.921Z,99877.94
2022-10-22T16:17:53.273Z,99875.94
2022-10-22T16:20:22.921Z,99880.94
2022-10-22T16:22:50.438Z,99882.59
2022-10-22T16:25:17.522Z,99886.41
2022-10-22T16:27:46.645Z,99884.72
2022-10-22T16:30:14.734Z,99883.59
2022-10-22T16:32:41.854Z,99886.25
2022-10-22T16:35:09.326Z,99879.94
2022-10-22T16:37:36.280Z,99882.91
2022-10-22T16:40:07.404Z,99883.09
2022-10-22T16:42:38.057Z,99885.59
2022-10-22T16:45:05.760Z,99874.53
2022-10-22T16:47:32.962Z,99874.22
2022-10-22T16:50:01.031Z,99867.72
2022-10-22T16:52:30.952Z,99855.53
2022-10-22T16:54:58.512Z,99868.91
2022-10-22T16:57:27.816Z,99871.53
2022-10-22T17:04:24.158Z,99873.56
2022-10-22T17:06:53.656Z,99862.09
2022-10-22T17:09:20.924Z,99857.91
2022-10-22T17:11:50.081Z,99857.91
2022-10-22T17:14:17.102Z,99858.38
2022-10-22T17:16:45.056Z,99856.56
2022-10-22T17:19:16.042Z,99853.56
2022-10-22T17:21:49.560Z,99851.91
2022-10-22T17:24:21.203Z,99852.56
2022-10-22T17:26:48.699Z,99854.88
2022-10-22T17:29:18.471Z,99841.03
2022-10-22T17:31:47.933Z,99840.38
2022-10-22T17:34:18.302Z,99847.22
2022-10-22T17:36:45.249Z,99842.06
2022-10-22T17:39:18.022Z,99848.59
2022-10-22T17:41:46.084Z,99836.38
2022-10-22T17:44:20.700Z,99828.88
2022-10-22T17:46:49.924Z,99831.06
2022-10-22T17:49:34.738Z,99835.38
2022-10-22T17:52:02.162Z,99827.50
2022-10-22T17:54:29.407Z,99829.84
2022-10-22T17:56:56.313Z,99826.00
2022-10-22T17:59:23.265Z,99831.56
2022-10-22T18:01:50.543Z,99819.53
2022-10-22T18:04:22.068Z,99815.88
2022-10-22T18:06:49.694Z,99820.22
2022-10-22T18:10:13.389Z,99824.38
2022-10-22T18:12:40.549Z,99810.56
2022-10-22T18:15:10.582Z,99818.53
2022-10-22T18:17:41.532Z,99812.22
2022-10-22T18:20:09.356Z,99807.38
2022-10-22T18:22:36.354Z,99803.53
2022-10-22T18:25:05.585Z,99800.03
2022-10-22T18:27:35.708Z,99795.22
2022-10-22T18:30:05.620Z,99794.22
2022-10-22T18:32:34.348Z,99792.22
2022-10-22T18:35:03.663Z,99786.84
2022-10-22T18:37:39.661Z,99797.84
2022-10-22T18:40:08.803Z,99789.19
2022-10-22T18:42:39.816Z,99793.88
2022-10-22T18:45:07.625Z,99792.03
2022-10-22T18:47:42.857Z,99792.56
2022-10-22T18:50:10.180Z,99794.19
2022-10-22T18:52:39.631Z,99794.38
2022-10-22T18:55:07.178Z,99785.88
2022-10-22T18:57:34.312Z,99780.19
2022-10-22T19:00:01.425Z,99780.69
2022-10-22T19:02:29.886Z,99779.38
2022-10-22T19:04:56.910Z,99774.53
2022-10-22T19:07:23.839Z,99777.53
2022-10-22T19:09:50.755Z,99771.88
2022-10-22T19:12:21.706Z,99771.88
2022-10-22T19:14:55.953Z,99775.69
2022-10-22T19:17:30.752Z,99773.69
2022-10-22T19:19:57.572Z,99771.22
2022-10-22T19:22:24.565Z,99778.38
2022-10-22T19:24:52.101Z,99774.88
2022-10-22T19:27:19.841Z,99777.19
2022-10-22T19:29:47.148Z,99767.88
2022-10-22T19:32:20.167Z,99776.22
2022-10-22T19:34:52.437Z,99771.19
2022-10-22T19:37:30.255Z,99780.88
2022-10-22T19:39:57.439Z,99779.19
2022-10-22T19:42:24.507Z,99772.88
2022-10-22T19:44:56.032Z,99786.22
2022-10-22T19:47:28.135Z,99777.06
2022-10-22T19:50:00.512Z,99772.22
2022-10-22T19:52:28.845Z,99783.38
2022-10-22T19:54:55.960Z,99782.34
2022-10-22T19:57:33.955Z,99763.69
2022-10-22T20:00:01.104Z,99777.56
2022-10-22T20:02:28.759Z,99784.72
2022-10-22T20:04:57.866Z,99773.22
2022-10-22T20:07:29.406Z,99781.22
2022-10-22T20:10:01.572Z,99775.53
2022-10-22T20:12:31.195Z,99775.84
2022-10-22T20:15:03.140Z,99780.03
2022-10-22T20:17:36.335Z,99771.03
2022-10-22T20:20:08.437Z,99784.03
2022-10-22T20:22:43.364Z,99782.06
2022-10-22T20:25:15.128Z,99767.88
2022-10-22T20:27:42.572Z,99767.69
2022-10-22T20:30:19.611Z,99790.38
2022-10-22T20:32:55.393Z,99769.53
2022-10-22T20:35:23.033Z,99780.03
2022-10-22T20:37:50.181Z,99772.22
2022-10-22T20:40:20.300Z,99770.53
2022-10-22T20:42:50.497Z,99746.22
2022-10-22T20:45:20.784Z,99772.03
2022-10-22T20:47:51.734Z,99767.53
2022-10-22T20:50:32.309Z,99750.69
2022-10-22T20:52:59.800Z,99763.53
2022-10-22T20:55:29.904Z,99756.88
2022-10-22T20:57:59.325Z,99746.19
2022-10-22T21:00:27.329Z,99739.53
2022-10-22T21:03:01.852Z,99745.38
2022-10-22T21:05:28.937Z,99753.19
2022-10-22T21:07:55.873Z,99757.22
2022-10-22T21:10:22.728Z,99744.53
2022-10-22T21:12:49.692Z,99747.19
2022-10-22T21:15:16.802Z,99744.88
2022-10-22T21:17:46.688Z,99753.88
2022-10-22T21:20:13.750Z,99757.19
2022-10-22T21:22:41.161Z,99749.34
2022-10-22T21:25:12.085Z,99754.22
2022-10-22T21:27:39.356Z,99739.53
2022-10-22T21:30:12.095Z,99740.03
2022-10-22T21:32:44.723Z,99714.69
2022-10-22T21:35:14.786Z,99723.03
2022-10-22T21:37:42.013Z,99716.88
2022-10-22T21:40:15.748Z,99733.53
2022-10-22T21:42:42.965Z,99712.50
2022-10-22T21:45:17.517Z,99729.34
2022-10-22T21:47:53.308Z,99722.22
2022-10-22T21:50:20.843Z,99696.88
2022-10-22T21:53:01.065Z,99688.53
2022-10-22T21:55:35.203Z,99685.34
2022-10-22T21:58:05.302Z,99700.19
2022-10-22T22:00:33.264Z,99694.22
2022-10-22T22:03:00.930Z,99701.84
2022-10-22T22:05:30.315Z,99692.34
2022-10-22T22:08:01.943Z,99696.66
2022-10-22T22:10:31.077Z,99696.50
2022-10-22T22:13:07.036Z,99708.38
2022-10-22T22:15:42.401Z,99683.16
2022-10-22T22:18:09.606Z,99689.19
2022-10-22T22:20:37.182Z,99691.38
2022-10-22T22:23:04.455Z,99681.53
2022-10-22T22:25:31.772Z,99691.53
2022-10-22T22:28:01.350Z,99665.88
2022-10-22T22:30:28.640Z,99684.69
2022-10-22T22:33:03.750Z,99686.03
2022-10-22T22:35:31.170Z,99675.16
2022-10-22T22:37:59.148Z,99661.50
2022-10-22T22:40:27.434Z,99677.69
2022-10-22T22:42:58.989Z,99671.69
2022-10-22T22:45:26.221Z,99660.38
2022-10-22T22:47:53.428Z,99654.66
2022-10-22T22:50:23.012Z,99662.19
2022-10-22T22:52:52.371Z,99636.19
2022-10-22T22:55:24.727Z,99662.88
2022-10-22T22:57:51.842Z,99651.22
2022-10-22T23:00:26.609Z,99651.38
2022-10-22T23:02:56.704Z,99654.88
2022-10-22T23:05:23.648Z,99643.53
2022-10-22T23:07:50.651Z,99647.53
2022-10-22T23:10:17.528Z,99638.53
2022-10-22T23:12:44.794Z,99635.22
2022-10-22T23:15:11.970Z,99634.16
2022-10-22T23:17:43.690Z,99626.03
2022-10-22T23:20:13.549Z,99621.88
2022-10-22T23:22:40.742Z,99622.03
2022-10-22T23:25:10.253Z,99625.53
2022-10-22T23:27:37.079Z,99622.72
2022-10-22T23:30:07.081Z,99625.38
2022-10-22T23:32:37.302Z,99623.84
2022-10-22T23:35:10.356Z,99606.03
2022-10-22T23:37:44.537Z,99591.06
2022-10-22T23:40:19.758Z,99617.88
2022-10-22T23:42:54.111Z,99614.03
2022-10-22T23:45:21.065Z,99610.22
2022-10-22T23:47:48.023Z,99599.88
2022-10-22T23:50:15.078Z,99604.22
2022-10-22T23:52:45.785Z,99600.53
2022-10-22T23:55:12.941Z,99589.72
2022-10-22T23:57:39.944Z,99591.56
